sensor_id;sensor_type;location;lat;lon;timestamp;pressure;altitude;pressure_sealevel;temperature;humidity
60871;BME280;46714;50.118;14.462;2022-12-18T00:03:45;100424.34;;;-8.17;93.77
60871;BME280;46714;50.118;14.462;2022-12-18T00:06:11;100423.47;;;-8.18;93.71
60871;BME280;46714;50.118;14.462;2022-12-18T00:08:36;100425.06;;;-8.14;93.66
60871;BME280;46714;50.118;14.462;2022-12-18T00:11:10;100433.91;;;-8.15;93.96
60871;BME280;46714;50.118;14.462;2022-12-18T00:13:37;100424.25;;;-8.16;93.83
60871;BME280;46714;50.118;14.462;2022-12-18T00:16:04;100432.13;;;-8.14;93.67
60871;BME280;46714;50.118;14.462;2022-12-18T00:18:34;100426.91;;;-8.16;93.41
60871;BME280;46714;50.118;14.462;2022-12-18T00:21:00;100424.41;;;-8.19;93.18
60871;BME280;46714;50.118;14.462;2022-12-18T00:23:28;100426.25;;;-8.21;92.99
60871;BME280;46714;50.118;14.462;2022-12-18T00:25:54;100431.56;;;-8.23;93.12
60871;BME280;46714;50.118;14.462;2022-12-18T00:28:19;100440.63;;;-8.28;92.79
60871;BME280;46714;50.118;14.462;2022-12-18T00:30:44;100448.56;;;-8.28;93.36
60871;BME280;46714;50.118;14.462;2022-12-18T00:33:10;100456.47;;;-8.28;92.74
60871;BME280;46714;50.118;14.462;2022-12-18T00:35:35;100452.97;;;-8.29;92.57
60871;BME280;46714;50.118;14.462;2022-12-18T00:38:01;100454.75;;;-8.29;92.79
60871;BME280;46714;50.118;14.462;2022-12-18T00:40:26;100457.66;;;-8.35;91.90
60871;BME280;46714;50.118;14.462;2022-12-18T00:42:51;100462.19;;;-8.39;92.41
60871;BME280;46714;50.118;14.462;2022-12-18T00:45:26;100471.72;;;-8.35;92.61
60871;BME280;46714;50.118;14.462;2022-12-18T00:47:56;100473.50;;;-8.35;92.58
60871;BME280;46714;50.118;14.462;2022-12-18T00:50:22;100469.91;;;-8.34;92.93
60871;BME280;46714;50.118;14.462;2022-12-18T00:52:49;100470.91;;;-8.37;92.90
60871;BME280;46714;50.118;14.462;2022-12-18T00:55:15;100468.31;;;-8.38;92.68
60871;BME280;46714;50.118;14.462;2022-12-18T00:57:41;100479.03;;;-8.41;92.73
60871;BME280;46714;50.118;14.462;2022-12-18T01:00:07;100480.97;;;-8.45;91.90
60871;BME280;46714;50.118;14.462;2022-12-18T01:02:35;100479.97;;;-8.43;92.38
60871;BME280;46714;50.118;14.462;2022-12-18T01:05:00;100480.66;;;-8.39;92.55
60871;BME280;46714;50.118;14.462;2022-12-18T01:07:26;100486.91;;;-8.40;92.01
60871;BME280;46714;50.118;14.462;2022-12-18T01:09:51;100484.28;;;-8.40;92.16
60871;BME280;46714;50.118;14.462;2022-12-18T01:12:16;100486.31;;;-8.47;92.00
60871;BME280;46714;50.118;14.462;2022-12-18T01:14:41;100490.72;;;-8.47;92.30
60871;BME280;46714;50.118;14.462;2022-12-18T01:17:07;100488.88;;;-8.45;92.53
60871;BME280;46714;50.118;14.462;2022-12-18T01:19:32;100499.44;;;-8.45;92.19
60871;BME280;46714;50.118;14.462;2022-12-18T01:21:58;100500.31;;;-8.45;92.48
60871;BME280;46714;50.118;14.462;2022-12-18T01:24:23;100498.56;;;-8.46;92.22
60871;BME280;46714;50.118;14.462;2022-12-18T01:26:49;100510.97;;;-8.48;91.96
60871;BME280;46714;50.118;14.462;2022-12-18T01:29:14;100509.22;;;-8.47;92.16
60871;BME280;46714;50.118;14.462;2022-12-18T01:31:40;100514.66;;;-8.52;91.70
60871;BME280;46714;50.118;14.462;2022-12-18T01:34:05;100498.94;;;-8.55;91.80
60871;BME280;46714;50.118;14.462;2022-12-18T01:36:32;100507.66;;;-8.53;92.06
60871;BME280;46714;50.118;14.462;2022-12-18T01:38:59;100508.78;;;-8.58;91.59
60871;BME280;46714;50.118;14.462;2022-12-18T01:41:26;100509.66;;;-8.59;91.72
60871;BME280;46714;50.118;14.462;2022-12-18T01:47:18;100520.31;;;-8.61;91.94
60871;BME280;46714;50.118;14.462;2022-12-18T01:49:46;100522.25;;;-8.66;91.80
60871;BME280;46714;50.118;14.462;2022-12-18T01:52:12;100529.13;;;-8.62;92.29
60871;BME280;46714;50.118;14.462;2022-12-18T01:54:38;100519.38;;;-8.60;92.50
60871;BME280;46714;50.118;14.462;2022-12-18T01:57:03;100513.13;;;-8.57;92.54
60871;BME280;46714;50.118;14.462;2022-12-18T01:59:29;100509.63;;;-8.58;92.45
60871;BME280;46714;50.118;14.462;2022-12-18T02:01:57;100517.50;;;-8.56;92.21
60871;BME280;46714;50.118;14.462;2022-12-18T02:04:25;100520.97;;;-8.56;92.58
60871;BME280;46714;50.118;14.462;2022-12-18T02:10:13;100527.75;;;-8.49;93.07
60871;BME280;46714;50.118;14.462;2022-12-18T02:12:45;100535.44;;;-8.43;93.02
60871;BME280;46714;50.118;14.462;2022-12-18T02:15:29;100530.84;;;-8.39;92.99
60871;BME280;46714;50.118;14.462;2022-12-18T02:18:05;100529.94;;;-8.38;92.92
60871;BME280;46714;50.118;14.462;2022-12-18T02:26:33;100552.06;;;-8.20;93.12
60871;BME280;46714;50.118;14.462;2022-12-18T02:29:07;100546.56;;;-8.14;92.86
60871;BME280;46714;50.118;14.462;2022-12-18T02:31:38;100549.16;;;-8.12;92.68
60871;BME280;46714;50.118;14.462;2022-12-18T02:34:08;100559.56;;;-8.09;92.55
60871;BME280;46714;50.118;14.462;2022-12-18T02:36:35;100555.91;;;-8.05;92.59
60871;BME280;46714;50.118;14.462;2022-12-18T02:39:03;100550.63;;;-8.05;92.38
60871;BME280;46714;50.118;14.462;2022-12-18T02:41:31;100555.94;;;-8.07;92.56
60871;BME280;46714;50.118;14.462;2022-12-18T02:44:00;100548.09;;;-8.08;92.66
60871;BME280;46714;50.118;14.462;2022-12-18T02:49:06;100548.81;;;-8.05;92.98
60871;BME280;46714;50.118;14.462;2022-12-18T02:54:16;100546.56;;;-7.92;93.42
60871;BME280;46714;50.118;14.462;2022-12-18T02:56:48;100541.06;;;-7.87;93.75
60871;BME280;46714;50.118;14.462;2022-12-18T02:59:22;100549.53;;;-7.79;94.16
60871;BME280;46714;50.118;14.462;2022-12-18T03:04:28;100550.03;;;-7.69;95.00
60871;BME280;46714;50.118;14.462;2022-12-18T03:06:59;100558.66;;;-7.66;95.44
60871;BME280;46714;50.118;14.462;2022-12-18T03:09:29;100555.81;;;-7.61;95.44
60871;BME280;46714;50.118;14.462;2022-12-18T03:14:56;100556.97;;;-7.46;95.96
60871;BME280;46714;50.118;14.462;2022-12-18T03:17:29;100555.78;;;-7.39;95.85
60871;BME280;46714;50.118;14.462;2022-12-18T03:19:58;100569.59;;;-7.32;95.90
60871;BME280;46714;50.118;14.462;2022-12-18T03:22:29;100567.75;;;-7.30;95.84
60871;BME280;46714;50.118;14.462;2022-12-18T03:24:58;100562.50;;;-7.32;95.83
60871;BME280;46714;50.118;14.462;2022-12-18T03:27:28;100572.25;;;-7.32;96.14
60871;BME280;46714;50.118;14.462;2022-12-18T03:30:04;100571.31;;;-7.31;96.25
60871;BME280;46714;50.118;14.462;2022-12-18T03:32:35;100575.59;;;-7.29;96.47
60871;BME280;46714;50.118;14.462;2022-12-18T03:35:24;100573.94;;;-7.31;96.51
60871;BME280;46714;50.118;14.462;2022-12-18T03:37:55;100569.59;;;-7.32;96.77
60871;BME280;46714;50.118;14.462;2022-12-18T03:40:21;100573.25;;;-7.35;96.67
60871;BME280;46714;50.118;14.462;2022-12-18T03:43:07;100577.78;;;-7.39;96.96
60871;BME280;46714;50.118;14.462;2022-12-18T03:45:42;100588.31;;;-7.37;96.99
60871;BME280;46714;50.118;14.462;2022-12-18T03:48:19;100581.16;;;-7.35;96.87
60871;BME280;46714;50.118;14.462;2022-12-18T03:50:57;100579.28;;;-7.33;96.88
60871;BME280;46714;50.118;14.462;2022-12-18T03:56:16;100581.56;;;-7.24;96.66
60871;BME280;46714;50.118;14.462;2022-12-18T03:58:45;100575.34;;;-7.23;96.92
60871;BME280;46714;50.118;14.462;2022-12-18T04:01:13;100580.63;;;-7.23;96.93
60871;BME280;46714;50.118;14.462;2022-12-18T04:03:41;100587.41;;;-7.17;97.06
60871;BME280;46714;50.118;14.462;2022-12-18T04:06:09;100588.97;;;-7.11;97.09
60871;BME280;46714;50.118;14.462;2022-12-18T04:08:36;100594.00;;;-7.05;96.98
60871;BME280;46714;50.118;14.462;2022-12-18T04:11:01;100598.34;;;-7.04;96.55
60871;BME280;46714;50.118;14.462;2022-12-18T04:13:28;100602.78;;;-7.05;96.29
60871;BME280;46714;50.118;14.462;2022-12-18T04:15:55;100596.75;;;-7.08;95.90
60871;BME280;46714;50.118;14.462;2022-12-18T04:18:20;100598.00;;;-7.17;95.40
60871;BME280;46714;50.118;14.462;2022-12-18T04:20:46;100594.78;;;-7.24;95.07
60871;BME280;46714;50.118;14.462;2022-12-18T04:23:11;100594.09;;;-7.29;95.07
60871;BME280;46714;50.118;14.462;2022-12-18T04:25:36;100604.03;;;-7.34;95.07
60871;BME280;46714;50.118;14.462;2022-12-18T04:28:02;100610.25;;;-7.35;95.23
60871;BME280;46714;50.118;14.462;2022-12-18T04:30:27;100614.75;;;-7.37;95.10
60871;BME280;46714;50.118;14.462;2022-12-18T04:32:52;100615.66;;;-7.38;94.95
60871;BME280;46714;50.118;14.462;2022-12-18T04:35:18;100628.84;;;-7.37;95.31
60871;BME280;46714;50.118;14.462;2022-12-18T04:37:43;100624.34;;;-7.34;95.35
60871;BME280;46714;50.118;14.462;2022-12-18T04:40:09;100616.25;;;-7.31;95.58
60871;BME280;46714;50.118;14.462;2022-12-18T04:42:34;100620.50;;;-7.27;95.51
60871;BME280;46714;50.118;14.462;2022-12-18T04:45:00;100622.09;;;-7.23;95.66
60871;BME280;46714;50.118;14.462;2022-12-18T04:47:25;100610.53;;;-7.21;95.28
60871;BME280;46714;50.118;14.462;2022-12-18T04:49:50;100613.88;;;-7.17;95.45
60871;BME280;46714;50.118;14.462;2022-12-18T04:52:16;100613.81;;;-7.16;95.43
60871;BME280;46714;50.118;14.462;2022-12-18T04:54:41;100611.03;;;-7.12;95.28
60871;BME280;46714;50.118;14.462;2022-12-18T04:57:06;100622.41;;;-7.10;95.29
60871;BME280;46714;50.118;14.462;2022-12-18T04:59:32;100616.28;;;-7.11;94.89
60871;BME280;46714;50.118;14.462;2022-12-18T05:01:57;100617.91;;;-7.08;95.09
60871;BME280;46714;50.118;14.462;2022-12-18T05:04:22;100623.09;;;-7.05;94.84
60871;BME280;46714;50.118;14.462;2022-12-18T05:06:48;100622.22;;;-7.06;94.91
60871;BME280;46714;50.118;14.462;2022-12-18T05:09:13;100623.84;;;-7.03;94.82
60871;BME280;46714;50.118;14.462;2022-12-18T05:11:38;100616.59;;;-6.98;94.84
60871;BME280;46714;50.118;14.462;2022-12-18T05:14:04;100610.22;;;-6.94;95.21
60871;BME280;46714;50.118;14.462;2022-12-18T05:16:29;100626.84;;;-6.90;94.85
60871;BME280;46714;50.118;14.462;2022-12-18T05:18:54;100632.00;;;-6.87;94.83
60871;BME280;46714;50.118;14.462;2022-12-18T05:21:20;100637.06;;;-6.83;95.11
60871;BME280;46714;50.118;14.462;2022-12-18T05:23:45;100636.13;;;-6.80;94.69
60871;BME280;46714;50.118;14.462;2022-12-18T05:26:13;100643.97;;;-6.79;95.07
60871;BME280;46714;50.118;14.462;2022-12-18T05:28:41;100640.41;;;-6.78;94.82
60871;BME280;46714;50.118;14.462;2022-12-18T05:31:07;100646.56;;;-6.77;94.89
60871;BME280;46714;50.118;14.462;2022-12-18T05:33:33;100650.13;;;-6.78;94.98
60871;BME280;46714;50.118;14.462;2022-12-18T05:36:00;100641.31;;;-6.79;95.17
60871;BME280;46714;50.118;14.462;2022-12-18T05:38:27;100644.91;;;-6.80;95.11
60871;BME280;46714;50.118;14.462;2022-12-18T05:40:54;100653.84;;;-6.82;95.19
60871;BME280;46714;50.118;14.462;2022-12-18T05:43:20;100649.47;;;-6.83;95.51
60871;BME280;46714;50.118;14.462;2022-12-18T05:45:47;100649.47;;;-6.83;95.86
60871;BME280;46714;50.118;14.462;2022-12-18T05:48:13;100656.50;;;-6.82;95.52
60871;BME280;46714;50.118;14.462;2022-12-18T05:50:40;100662.78;;;-6.85;95.60
60871;BME280;46714;50.118;14.462;2022-12-18T05:53:07;100668.09;;;-6.85;95.86
60871;BME280;46714;50.118;14.462;2022-12-18T05:55:33;100660.31;;;-6.89;95.73
60871;BME280;46714;50.118;14.462;2022-12-18T05:58:02;100672.69;;;-6.90;95.76
60871;BME280;46714;50.118;14.462;2022-12-18T06:00:30;100684.03;;;-6.86;95.87
60871;BME280;46714;50.118;14.462;2022-12-18T06:02:57;100676.03;;;-6.85;95.72
60871;BME280;46714;50.118;14.462;2022-12-18T06:05:22;100683.03;;;-6.84;96.18
60871;BME280;46714;50.118;14.462;2022-12-18T06:07:48;100688.13;;;-6.79;96.15
60871;BME280;46714;50.118;14.462;2022-12-18T06:10:13;100684.31;;;-6.74;96.34
60871;BME280;46714;50.118;14.462;2022-12-18T06:12:38;100692.16;;;-6.70;96.42
60871;BME280;46714;50.118;14.462;2022-12-18T06:15:04;100682.41;;;-6.70;96.34
60871;BME280;46714;50.118;14.462;2022-12-18T06:17:30;100681.38;;;-6.66;96.67
60871;BME280;46714;50.118;14.462;2022-12-18T06:19:56;100687.31;;;-6.61;96.44
60871;BME280;46714;50.118;14.462;2022-12-18T06:22:21;100686.44;;;-6.61;96.08
60871;BME280;46714;50.118;14.462;2022-12-18T06:24:47;100692.59;;;-6.61;95.94
60871;BME280;46714;50.118;14.462;2022-12-18T06:27:12;100695.41;;;-6.64;95.86
60871;BME280;46714;50.118;14.462;2022-12-18T06:29:37;100699.03;;;-6.66;96.34
60871;BME280;46714;50.118;14.462;2022-12-18T06:32:03;100699.91;;;-6.66;96.38
60871;BME280;46714;50.118;14.462;2022-12-18T06:34:28;100699.91;;;-6.66;96.37
60871;BME280;46714;50.118;14.462;2022-12-18T06:36:57;100705.25;;;-6.67;96.71
60871;BME280;46714;50.118;14.462;2022-12-18T06:39:22;100708.94;;;-6.71;96.57
60871;BME280;46714;50.118;14.462;2022-12-18T06:41:48;100717.78;;;-6.71;96.89
60871;BME280;46714;50.118;14.462;2022-12-18T06:44:13;100726.50;;;-6.69;97.06
60871;BME280;46714;50.118;14.462;2022-12-18T06:46:38;100725.53;;;-6.66;96.99
60871;BME280;46714;50.118;14.462;2022-12-18T06:49:04;100733.31;;;-6.63;96.93
60871;BME280;46714;50.118;14.462;2022-12-18T06:51:29;100734.91;;;-6.59;96.94
60871;BME280;46714;50.118;14.462;2022-12-18T06:53:54;100737.28;;;-6.53;97.21
60871;BME280;46714;50.118;14.462;2022-12-18T06:56:20;100730.06;;;-6.49;96.91
60871;BME280;46714;50.118;14.462;2022-12-18T06:58:46;100747.88;;;-6.53;96.59
60871;BME280;46714;50.118;14.462;2022-12-18T07:01:11;100747.16;;;-6.57;96.71
60871;BME280;46714;50.118;14.462;2022-12-18T07:03:38;100754.34;;;-6.60;96.39
60871;BME280;46714;50.118;14.462;2022-12-18T07:06:05;100761.59;;;-6.64;96.94
60871;BME280;46714;50.118;14.462;2022-12-18T07:08:31;100754.50;;;-6.63;97.02
60871;BME280;46714;50.118;14.462;2022-12-18T07:10:57;100760.59;;;-6.61;97.33
60871;BME280;46714;50.118;14.462;2022-12-18T07:13:22;100762.25;;;-6.59;97.48
60871;BME280;46714;50.118;14.462;2022-12-18T07:15:48;100766.59;;;-6.58;97.71
60871;BME280;46714;50.118;14.462;2022-12-18T07:18:13;100771.19;;;-6.61;98.13
60871;BME280;46714;50.118;14.462;2022-12-18T07:20:38;100767.75;;;-6.63;98.18
60871;BME280;46714;50.118;14.462;2022-12-18T07:23:04;100764.31;;;-6.65;98.77
60871;BME280;46714;50.118;14.462;2022-12-18T07:25:30;100766.00;;;-6.64;98.65
60871;BME280;46714;50.118;14.462;2022-12-18T07:27:59;100769.59;;;-6.65;98.79
60871;BME280;46714;50.118;14.462;2022-12-18T07:30:24;100775.03;;;-6.68;99.09
60871;BME280;46714;50.118;14.462;2022-12-18T07:32:49;100783.88;;;-6.69;99.12
60871;BME280;46714;50.118;14.462;2022-12-18T07:35:15;100788.38;;;-6.71;99.34
60871;BME280;46714;50.118;14.462;2022-12-18T07:37:40;100796.31;;;-6.71;99.33
60871;BME280;46714;50.118;14.462;2022-12-18T07:40:06;100790.16;;;-6.72;99.73
60871;BME280;46714;50.118;14.462;2022-12-18T07:42:31;100790.91;;;-6.68;99.68
60871;BME280;46714;50.118;14.462;2022-12-18T07:44:57;100798.16;;;-6.74;99.73
60871;BME280;46714;50.118;14.462;2022-12-18T07:47:23;100805.34;;;-6.76;99.70
60871;BME280;46714;50.118;14.462;2022-12-18T07:49:48;100814.19;;;-6.77;99.60
60871;BME280;46714;50.118;14.462;2022-12-18T07:52:14;100815.19;;;-6.79;99.69
60871;BME280;46714;50.118;14.462;2022-12-18T07:54:39;100809.16;;;-6.83;99.71
60871;BME280;46714;50.118;14.462;2022-12-18T07:57:05;100811.97;;;-6.87;99.43
60871;BME280;46714;50.118;14.462;2022-12-18T07:59:31;100816.56;;;-6.91;99.27
60871;BME280;46714;50.118;14.462;2022-12-18T08:01:56;100815.63;;;-6.90;99.34
60871;BME280;46714;50.118;14.462;2022-12-18T08:04:21;100816.41;;;-6.88;99.24
60871;BME280;46714;50.118;14.462;2022-12-18T08:06:47;100816.38;;;-6.86;98.65
60871;BME280;46714;50.118;14.462;2022-12-18T08:09:12;100818.06;;;-6.85;98.63
60871;BME280;46714;50.118;14.462;2022-12-18T08:11:37;100817.03;;;-6.81;98.58
60871;BME280;46714;50.118;14.462;2022-12-18T08:14:03;100818.81;;;-6.82;98.24
60871;BME280;46714;50.118;14.462;2022-12-18T08:16:28;100818.25;;;-6.90;97.51
60871;BME280;46714;50.118;14.462;2022-12-18T08:18:55;100815.09;;;-6.98;96.99
60871;BME280;46714;50.118;14.462;2022-12-18T08:21:22;100819.69;;;-7.03;97.17
60871;BME280;46714;50.118;14.462;2022-12-18T08:23:50;100810.03;;;-7.04;97.07
60871;BME280;46714;50.118;14.462;2022-12-18T08:26:16;100805.69;;;-7.05;97.15
60871;BME280;46714;50.118;14.462;2022-12-18T08:28:42;100809.28;;;-7.08;97.26
60871;BME280;46714;50.118;14.462;2022-12-18T08:31:08;100806.59;;;-7.06;97.46
60871;BME280;46714;50.118;14.462;2022-12-18T08:33:33;100815.19;;;-7.01;97.52
60871;BME280;46714;50.118;14.462;2022-12-18T08:36:00;100822.28;;;-7.02;97.33
60871;BME280;46714;50.118;14.462;2022-12-18T08:38:26;100825.78;;;-7.01;97.30
60871;BME280;46714;50.118;14.462;2022-12-18T08:41:01;100827.53;;;-7.00;97.26
60871;BME280;46714;50.118;14.462;2022-12-18T08:43:28;100824.03;;;-7.01;97.19
60871;BME280;46714;50.118;14.462;2022-12-18T08:46:12;100832.00;;;-7.02;97.38
60871;BME280;46714;50.118;14.462;2022-12-18T08:48:40;100832.16;;;-7.05;97.30
60871;BME280;46714;50.118;14.462;2022-12-18T08:51:06;100824.41;;;-7.10;97.02
60871;BME280;46714;50.118;14.462;2022-12-18T08:53:31;100823.59;;;-7.12;97.25
60871;BME280;46714;50.118;14.462;2022-12-18T08:55:57;100830.34;;;-7.05;97.73
60871;BME280;46714;50.118;14.462;2022-12-18T08:58:22;100830.84;;;-6.95;98.02
60871;BME280;46714;50.118;14.462;2022-12-18T09:00:48;100827.25;;;-6.94;97.10
60871;BME280;46714;50.118;14.462;2022-12-18T09:03:17;100826.53;;;-6.98;97.33
60871;BME280;46714;50.118;14.462;2022-12-18T09:05:43;100829.22;;;-6.99;97.24
60871;BME280;46714;50.118;14.462;2022-12-18T09:08:10;100828.25;;;-6.97;97.40
60871;BME280;46714;50.118;14.462;2022-12-18T09:10:42;100833.28;;;-6.90;97.65
60871;BME280;46714;50.118;14.462;2022-12-18T09:13:09;100821.47;;;-6.82;97.84
60871;BME280;46714;50.118;14.462;2022-12-18T09:15:40;100822.13;;;-6.77;97.87
60871;BME280;46714;50.118;14.462;2022-12-18T09:18:10;100820.28;;;-6.75;97.63
60871;BME280;46714;50.118;14.462;2022-12-18T09:20:36;100817.50;;;-6.71;97.73
60871;BME280;46714;50.118;14.462;2022-12-18T09:23:02;100826.19;;;-6.68;97.72
60871;BME280;46714;50.118;14.462;2022-12-18T09:25:28;100821.81;;;-6.69;96.97
60871;BME280;46714;50.118;14.462;2022-12-18T09:27:57;100829.94;;;-6.74;97.20
60871;BME280;46714;50.118;14.462;2022-12-18T09:30:23;100824.97;;;-6.81;97.12
60871;BME280;46714;50.118;14.462;2022-12-18T09:32:49;100821.66;;;-6.86;97.26
60871;BME280;46714;50.118;14.462;2022-12-18T09:35:14;100828.63;;;-6.84;97.64
60871;BME280;46714;50.118;14.462;2022-12-18T09:37:39;100842.03;;;-6.88;97.48
60871;BME280;46714;50.118;14.462;2022-12-18T09:40:09;100839.38;;;-6.88;97.96
60871;BME280;46714;50.118;14.462;2022-12-18T09:42:46;100841.03;;;-6.86;97.83
60871;BME280;46714;50.118;14.462;2022-12-18T09:45:17;100836.41;;;-6.81;97.58
60871;BME280;46714;50.118;14.462;2022-12-18T09:47:43;100847.00;;;-6.81;97.42
60871;BME280;46714;50.118;14.462;2022-12-18T09:52:59;100867.75;;;-6.70;97.90
60871;BME280;46714;50.118;14.462;2022-12-18T09:55:34;100865.53;;;-6.59;97.57
60871;BME280;46714;50.118;14.462;2022-12-18T09:58:06;100866.25;;;-6.55;97.60
60871;BME280;46714;50.118;14.462;2022-12-18T10:00:41;100885.34;;;-6.47;97.48
60871;BME280;46714;50.118;14.462;2022-12-18T10:03:10;100878.94;;;-6.41;97.28
60871;BME280;46714;50.118;14.462;2022-12-18T10:14:18;100870.06;;;-6.40;96.63
60871;BME280;46714;50.118;14.462;2022-12-18T10:19:55;100859.28;;;-6.36;96.23
60871;BME280;46714;50.118;14.462;2022-12-18T10:25:19;100851.75;;;-6.46;95.73
60871;BME280;46714;50.118;14.462;2022-12-18T10:27:51;100847.41;;;-6.47;95.71
60871;BME280;46714;50.118;14.462;2022-12-18T10:30:21;100836.56;;;-6.41;96.24
60871;BME280;46714;50.118;14.462;2022-12-18T10:32:48;100846.47;;;-6.46;95.83
60871;BME280;46714;50.118;14.462;2022-12-18T10:35:24;100826.28;;;-6.49;95.88
60871;BME280;46714;50.118;14.462;2022-12-18T10:40:28;100820.31;;;-6.54;96.04
60871;BME280;46714;50.118;14.462;2022-12-18T10:43:04;100820.47;;;-6.57;95.72
60871;BME280;46714;50.118;14.462;2022-12-18T10:45:31;100820.06;;;-6.48;96.55
60871;BME280;46714;50.118;14.462;2022-12-18T10:47:56;100816.47;;;-6.47;96.04
60871;BME280;46714;50.118;14.462;2022-12-18T10:52:54;100799.84;;;-6.50;95.98
60871;BME280;46714;50.118;14.462;2022-12-18T10:55:21;100797.47;;;-6.57;95.81
60871;BME280;46714;50.118;14.462;2022-12-18T10:57:47;100797.47;;;-6.57;96.05
60871;BME280;46714;50.118;14.462;2022-12-18T11:02:50;100792.22;;;-6.58;96.09
60871;BME280;46714;50.118;14.462;2022-12-18T11:05:29;100786.09;;;-6.59;96.22
60871;BME280;46714;50.118;14.462;2022-12-18T11:07:56;100786.94;;;-6.58;96.19
60871;BME280;46714;50.118;14.462;2022-12-18T11:10:25;100784.34;;;-6.60;95.94
60871;BME280;46714;50.118;14.462;2022-12-18T11:13:18;100786.78;;;-6.55;96.04
60871;BME280;46714;50.118;14.462;2022-12-18T11:15:47;100781.44;;;-6.54;96.14
60871;BME280;46714;50.118;14.462;2022-12-18T11:18:29;100788.41;;;-6.51;96.06
60871;BME280;46714;50.118;14.462;2022-12-18T11:21:11;100787.09;;;-6.61;95.66
60871;BME280;46714;50.118;14.462;2022-12-18T11:23:44;100786.75;;;-6.54;96.41
60871;BME280;46714;50.118;14.462;2022-12-18T11:26:14;100787.13;;;-6.63;95.67
60871;BME280;46714;50.118;14.462;2022-12-18T11:33:41;100779.34;;;-6.45;96.51
60871;BME280;46714;50.118;14.462;2022-12-18T11:36:10;100782.28;;;-6.33;96.76
60871;BME280;46714;50.118;14.462;2022-12-18T11:38:40;100773.94;;;-6.23;96.28
60871;BME280;46714;50.118;14.462;2022-12-18T11:41:20;100778.03;;;-6.16;96.04
60871;BME280;46714;50.118;14.462;2022-12-18T11:43:55;100769.97;;;-6.13;95.79
60871;BME280;46714;50.118;14.462;2022-12-18T11:51:41;100782.00;;;-6.06;95.94
60871;BME280;46714;50.118;14.462;2022-12-18T11:54:24;100777.22;;;-5.98;95.69
60871;BME280;46714;50.118;14.462;2022-12-18T11:56:57;100784.00;;;-5.92;95.32
60871;BME280;46714;50.118;14.462;2022-12-18T12:02:18;100783.00;;;-5.90;94.80
60871;BME280;46714;50.118;14.462;2022-12-18T12:05:01;100774.91;;;-5.86;94.61
60871;BME280;46714;50.118;14.462;2022-12-18T12:13:05;100786.94;;;-5.98;94.47
60871;BME280;46714;50.118;14.462;2022-12-18T12:15:58;100791.06;;;-6.12;94.72
60871;BME280;46714;50.118;14.462;2022-12-18T12:18:36;100788.78;;;-6.19;95.17
60871;BME280;46714;50.118;14.462;2022-12-18T12:21:25;100781.63;;;-6.17;95.38
60871;BME280;46714;50.118;14.462;2022-12-18T12:26:38;100775.13;;;-6.10;95.75
60871;BME280;46714;50.118;14.462;2022-12-18T12:29:34;100776.53;;;-6.22;95.32
60871;BME280;46714;50.118;14.462;2022-12-18T12:32:18;100780.84;;;-6.19;95.65
60871;BME280;46714;50.118;14.462;2022-12-18T12:35:03;100791.06;;;-6.12;96.03
60871;BME280;46714;50.118;14.462;2022-12-18T12:40:17;100790.53;;;-5.99;95.96
60871;BME280;46714;50.118;14.462;2022-12-18T12:42:54;100794.66;;;-5.94;96.00
60871;BME280;46714;50.118;14.462;2022-12-18T12:48:28;100794.31;;;-6.05;95.46
60871;BME280;46714;50.118;14.462;2022-12-18T12:50:56;100807.72;;;-6.08;95.46
60871;BME280;46714;50.118;14.462;2022-12-18T12:53:30;100809.72;;;-6.13;95.90
60871;BME280;46714;50.118;14.462;2022-12-18T12:56:02;100807.28;;;-6.18;95.83
60871;BME280;46714;50.118;14.462;2022-12-18T12:58:31;100815.28;;;-6.19;95.74
60871;BME280;46714;50.118;14.462;2022-12-18T13:01:12;100823.09;;;-6.16;95.93
60871;BME280;46714;50.118;14.462;2022-12-18T13:09:15;100822.84;;;-6.30;96.03
60871;BME280;46714;50.118;14.462;2022-12-18T13:11:44;100819.53;;;-6.36;96.04
60871;BME280;46714;50.118;14.462;2022-12-18T13:14:31;100826.69;;;-6.38;96.08
60871;BME280;46714;50.118;14.462;2022-12-18T13:22:31;100816.66;;;-6.51;96.62
60871;BME280;46714;50.118;14.462;2022-12-18T13:25:00;100817.66;;;-6.54;96.62
60871;BME280;46714;50.118;14.462;2022-12-18T13:46:05;100791.03;;;-6.71;97.16
60871;BME280;46714;50.118;14.462;2022-12-18T13:48:35;100795.13;;;-6.64;97.69
60871;BME280;46714;50.118;14.462;2022-12-18T13:51:04;100796.47;;;-6.54;97.60
60871;BME280;46714;50.118;14.462;2022-12-18T13:53:33;100786.78;;;-6.55;97.28
60871;BME280;46714;50.118;14.462;2022-12-18T13:56:15;100790.13;;;-6.50;97.28
60871;BME280;46714;50.118;14.462;2022-12-18T13:58:45;100806.63;;;-6.43;97.38
60871;BME280;46714;50.118;14.462;2022-12-18T14:01:22;100809.19;;;-6.42;97.10
60871;BME280;46714;50.118;14.462;2022-12-18T14:03:49;100806.72;;;-6.46;96.58
60871;BME280;46714;50.118;14.462;2022-12-18T14:06:33;100806.81;;;-6.48;96.81
60871;BME280;46714;50.118;14.462;2022-12-18T14:08:59;100817.53;;;-6.51;96.38
60871;BME280;46714;50.118;14.462;2022-12-18T14:11:24;100817.63;;;-6.53;96.48
60871;BME280;46714;50.118;14.462;2022-12-18T14:13:50;100809.88;;;-6.57;96.04
60871;BME280;46714;50.118;14.462;2022-12-18T14:16:15;100805.66;;;-6.63;96.30
60871;BME280;46714;50.118;14.462;2022-12-18T14:21:23;100828.22;;;-6.75;95.54
60871;BME280;46714;50.118;14.462;2022-12-18T14:26:43;100830.31;;;-6.83;95.62
60871;BME280;46714;50.118;14.462;2022-12-18T14:29:25;100833.25;;;-6.89;95.97
60871;BME280;46714;50.118;14.462;2022-12-18T14:34:41;100826.84;;;-7.05;96.12
60871;BME280;46714;50.118;14.462;2022-12-18T14:37:09;100837.72;;;-7.13;96.11
60871;BME280;46714;50.118;14.462;2022-12-18T14:39:35;100838.00;;;-7.19;95.97
60871;BME280;46714;50.118;14.462;2022-12-18T14:42:00;100841.66;;;-7.23;96.66
60871;BME280;46714;50.118;14.462;2022-12-18T14:44:25;100840.09;;;-7.29;96.46
60871;BME280;46714;50.118;14.462;2022-12-18T14:46:51;100834.94;;;-7.32;96.53